createdAt,value
2023-01-06T00:04:31.295Z,8.13
2023-01-06T00:09:56.800Z,7.68
2023-01-06T00:15:22.197Z,6.85
2023-01-06T00:20:46.478Z,7.15
2023-01-06T00:26:13.009Z,7.20
2023-01-06T00:31:38.520Z,5.78
2023-01-06T00:37:02.345Z,6.00
2023-01-06T00:42:28.813Z,6.55
2023-01-06T00:47:53.079Z,6.45
2023-01-06T00:53:17.998Z,6.95
2023-01-06T00:58:45.055Z,5.53
2023-01-06T01:04:10.315Z,5.60
2023-01-06T01:09:35.926Z,6.07
2023-01-06T01:15:01.331Z,5.70
2023-01-06T01:20:29.699Z,5.80
2023-01-06T01:25:56.480Z,6.40
2023-01-06T01:31:22.827Z,6.68
2023-01-06T01:36:48.705Z,5.80
2023-01-06T01:42:18.586Z,6.75
2023-01-06T01:47:49.795Z,6.15
2023-01-06T01:53:20.615Z,5.60
2023-01-06T02:04:11.887Z,7.40
2023-01-06T02:09:41.102Z,6.82
2023-01-06T02:15:14.998Z,6.63
2023-01-06T02:21:14.551Z,5.82
2023-01-06T02:27:18.598Z,6.10
2023-01-06T02:32:58.828Z,6.88
2023-01-06T02:38:41.881Z,6.18
2023-01-06T02:44:13.431Z,6.50
2023-01-06T02:49:45.449Z,7.13
2023-01-06T02:55:16.243Z,9.75
2023-01-06T03:00:44.089Z,9.30
2023-01-06T03:06:15.117Z,16.87
2023-01-06T03:11:44.076Z,15.02
2023-01-06T03:17:09.049Z,10.55
2023-01-06T03:22:38.812Z,11.55
2023-01-06T03:28:04.462Z,15.57
2023-01-06T03:33:37.298Z,14.85
2023-01-06T03:39:13.917Z,9.02
2023-01-06T03:44:47.628Z,12.15
2023-01-06T03:50:19.664Z,12.98
2023-01-06T03:55:52.425Z,16.85
2023-01-06T04:01:18.960Z,25.58
2023-01-06T04:06:45.179Z,23.63
2023-01-06T04:12:29.539Z,15.20
2023-01-06T04:17:54.151Z,12.43
2023-01-06T04:23:18.524Z,10.93
2023-01-06T04:28:49.665Z,10.80
2023-01-06T04:34:15.056Z,14.38
2023-01-06T04:39:39.238Z,12.80
2023-01-06T04:45:05.249Z,13.98
2023-01-06T04:50:29.539Z,11.05
2023-01-06T04:55:53.602Z,11.73
2023-01-06T05:01:20.837Z,9.95
2023-01-06T05:06:45.451Z,10.43
2023-01-06T05:12:12.235Z,12.27
2023-01-06T05:17:38.342Z,13.15
2023-01-06T05:23:02.696Z,16.48
2023-01-06T05:28:30.371Z,17.05
2023-01-06T05:33:56.723Z,23.17
2023-01-06T05:39:21.523Z,18.48
2023-01-06T05:44:45.387Z,13.70
2023-01-06T05:50:11.595Z,12.38
2023-01-06T05:55:35.807Z,12.00
2023-01-06T06:01:00.566Z,11.60
2023-01-06T06:06:29.471Z,12.32
2023-01-06T06:11:55.050Z,11.02
2023-01-06T06:17:20.299Z,12.02
2023-01-06T06:22:46.404Z,14.00
2023-01-06T06:28:10.846Z,11.95
2023-01-06T06:33:36.515Z,11.90
2023-01-06T06:39:03.046Z,11.93
2023-01-06T06:44:27.941Z,9.65
2023-01-06T06:49:54.111Z,11.70
2023-01-06T06:55:20.268Z,11.77
2023-01-06T07:00:44.900Z,13.20
2023-01-06T07:06:15.116Z,10.38
2023-01-06T07:11:42.804Z,10.95
2023-01-06T07:17:08.453Z,9.50
2023-01-06T07:22:33.213Z,10.00
2023-01-06T07:28:05.453Z,11.90
2023-01-06T07:33:30.431Z,10.95
2023-01-06T07:38:55.167Z,9.68
2023-01-06T07:44:21.120Z,10.82
2023-01-06T07:49:45.783Z,11.23
2023-01-06T07:55:12.243Z,9.77
2023-01-06T08:00:39.259Z,9.23
2023-01-06T08:06:08.593Z,8.75
2023-01-06T08:11:34.438Z,8.13
2023-01-06T08:17:01.670Z,8.27
2023-01-06T08:22:26.497Z,7.72
2023-01-06T08:27:51.295Z,6.82
2023-01-06T08:33:17.152Z,6.95
2023-01-06T08:38:42.738Z,6.82
2023-01-06T08:44:07.912Z,6.78
2023-01-06T08:49:34.369Z,3.10
2023-01-06T08:55:00.062Z,3.25
2023-01-06T09:00:26.363Z,3.00
2023-01-06T09:05:55.917Z,5.10
2023-01-06T09:11:21.428Z,3.50
2023-01-06T09:16:45.521Z,3.90
2023-01-06T09:22:11.185Z,6.28
2023-01-06T09:27:36.888Z,3.22
2023-01-06T09:33:01.904Z,2.22
2023-01-06T09:38:28.987Z,3.17
2023-01-06T09:43:59.636Z,2.80
2023-01-06T09:49:29.701Z,3.15
2023-01-06T09:55:00.318Z,3.60
2023-01-06T10:00:40.888Z,3.80
2023-01-06T10:06:22.096Z,2.90
2023-01-06T10:11:59.206Z,3.25
2023-01-06T10:17:38.473Z,3.42
2023-01-06T10:23:20.159Z,5.13
2023-01-06T10:28:53.905Z,4.50
2023-01-06T10:34:24.973Z,3.40
2023-01-06T10:40:01.066Z,4.07
2023-01-06T10:45:38.697Z,4.95
2023-01-06T10:51:28.160Z,5.38
2023-01-06T10:57:02.267Z,6.15
2023-01-06T11:02:32.471Z,6.00
2023-01-06T11:08:07.041Z,6.65
2023-01-06T11:13:38.884Z,7.05
2023-01-06T11:19:24.190Z,7.47
2023-01-06T11:24:55.701Z,6.95
2023-01-06T11:30:28.868Z,7.85
2023-01-06T11:36:04.120Z,6.40
2023-01-06T11:41:38.037Z,5.97
2023-01-06T11:47:13.511Z,7.22
2023-01-06T11:52:43.600Z,5.22
2023-01-06T11:58:19.805Z,4.78
2023-01-06T12:03:55.809Z,4.97
2023-01-06T12:09:32.706Z,4.20
2023-01-06T12:15:02.826Z,4.10
2023-01-06T12:20:34.570Z,5.00
2023-01-06T12:26:09.861Z,4.65
2023-01-06T12:31:46.471Z,4.93
2023-01-06T12:37:24.045Z,4.68
2023-01-06T12:43:00.002Z,4.25
2023-01-06T12:48:39.578Z,4.35
2023-01-06T12:54:14.222Z,4.50
2023-01-06T13:00:07.860Z,4.20
2023-01-06T13:05:55.930Z,4.32
2023-01-06T13:11:35.072Z,4.30
2023-01-06T13:17:13.183Z,4.30
2023-01-06T13:22:53.605Z,4.63
2023-01-06T13:28:35.312Z,5.60
2023-01-06T13:34:39.366Z,5.00
2023-01-06T13:40:13.279Z,4.30
2023-01-06T13:45:46.318Z,4.78
2023-01-06T13:51:19.543Z,5.07
2023-01-06T13:57:22.952Z,4.40
2023-01-06T17:22:40.988Z,2.95
2023-01-06T17:28:19.515Z,3.60
2023-01-06T17:33:48.853Z,3.17
2023-01-06T17:39:22.493Z,2.72
2023-01-06T17:44:54.787Z,3.45
2023-01-06T17:50:29.367Z,2.35
2023-01-06T17:55:54.183Z,3.13
2023-01-06T18:01:27.039Z,4.00
2023-01-06T18:06:56.147Z,3.20
2023-01-06T18:12:22.685Z,3.80
2023-01-06T18:17:51.900Z,3.65
2023-01-06T18:23:23.835Z,3.53
2023-01-06T18:28:55.234Z,3.17
2023-01-06T18:34:36.304Z,3.83
2023-01-06T18:40:05.706Z,3.20
2023-01-06T18:45:37.323Z,4.15
2023-01-06T18:51:02.941Z,3.65
2023-01-06T18:56:28.070Z,4.15
2023-01-06T19:01:53.620Z,3.70
2023-01-06T19:07:28.943Z,3.50
2023-01-06T19:13:00.645Z,3.65
2023-01-06T19:18:35.052Z,3.97
2023-01-06T19:23:59.296Z,8.65
2023-01-06T19:29:30.705Z,4.80
2023-01-06T19:35:02.138Z,3.90
2023-01-06T19:40:32.797Z,4.05
2023-01-06T19:45:58.613Z,4.97
2023-01-06T19:56:59.095Z,4.63
2023-01-06T20:02:31.165Z,3.88
2023-01-06T20:07:59.169Z,4.55
2023-01-06T20:13:27.088Z,3.95
2023-01-06T20:18:56.179Z,5.90
2023-01-06T20:24:26.543Z,5.00
2023-01-06T20:29:50.329Z,5.05
2023-01-06T20:35:20.189Z,5.07
2023-01-06T20:40:50.438Z,4.60
2023-01-06T20:46:18.935Z,4.22
2023-01-06T20:51:48.347Z,3.70
2023-01-06T20:57:13.914Z,4.32
2023-01-06T21:02:43.208Z,3.92
2023-01-06T21:08:11.977Z,3.22
2023-01-06T21:13:42.364Z,3.47
2023-01-06T21:19:08.368Z,4.05
2023-01-06T21:24:34.645Z,4.15
2023-01-06T21:30:06.958Z,4.05
2023-01-06T21:35:33.638Z,3.70
2023-01-06T21:41:24.638Z,4.05
2023-01-06T21:46:51.250Z,3.92
2023-01-06T21:52:16.883Z,4.78
2023-01-06T21:57:43.063Z,4.90
2023-01-06T22:03:08.631Z,4.25
2023-01-06T22:08:38.768Z,4.70
2023-01-06T22:14:11.055Z,4.63
2023-01-06T22:19:43.787Z,4.22
2023-01-06T22:25:13.313Z,5.20
2023-01-06T22:30:42.091Z,5.38
2023-01-06T22:36:08.453Z,5.03
2023-01-06T22:41:37.751Z,4.50
2023-01-06T22:47:09.782Z,4.07
2023-01-06T22:52:40.510Z,4.57
2023-01-06T22:58:09.134Z,4.53
2023-01-06T23:03:33.363Z,4.07
2023-01-06T23:09:03.419Z,4.10
2023-01-06T23:14:26.788Z,4.32
2023-01-06T23:19:52.984Z,4.68
2023-01-06T23:25:23.368Z,4.30
2023-01-06T23:30:52.384Z,4.18
2023-01-06T23:36:25.530Z,3.90
2023-01-06T23:41:56.789Z,5.32
2023-01-06T23:47:26.327Z,4.38
2023-01-06T23:52:49.935Z,3.40
2023-01-06T23:58:20.659Z,3.70
